Terminal Aerodrome Forecast
Issued by NWS Caribou, ME

Home | Current Version | Previous Version | Text Only | Print | Product List | Glossary On
Versions: 1 2 3 4 5 6 7 8 9 10 11 12 13 14 15 16 17 18 19 20
000
FTUS41 KCAR 231700
TAFCAR
TAF
KCAR 231739Z 2318/2418 27012G20KT P6SM VCSH BKN040
     FM240000 30007KT P6SM BKN200
     FM240600 VRB03KT P6SM FEW250
     FM241700 23006KT P6SM SKC=

USA.gov is the U.S. government's official web portal to all federal, state and local government web resources and services.